createdAt,value
2022-07-30T00:01:26.812Z,100903.85
2022-07-30T00:06:33.453Z,100906.03
2022-07-30T00:11:39.281Z,100906.19
2022-07-30T00:16:45.238Z,100912.86
2022-07-30T00:21:51.229Z,100912.70
2022-07-30T00:26:57.550Z,100906.98
2022-07-30T00:32:04.053Z,100897.05
2022-07-30T00:37:10.188Z,100889.40
2022-07-30T00:42:17.847Z,100877.98
2022-07-30T00:47:23.777Z,100873.77
2022-07-30T00:52:30.029Z,100871.71
2022-07-30T00:57:36.121Z,100867.53
2022-07-30T01:02:42.148Z,100867.19
2022-07-30T01:07:47.977Z,100854.53
2022-07-30T01:12:54.637Z,100850.73
2022-07-30T01:18:04.165Z,100850.29
2022-07-30T01:23:18.112Z,100851.18
2022-07-30T01:28:27.708Z,100844.11
2022-07-30T01:33:36.646Z,100831.31
2022-07-30T01:38:44.213Z,100824.96
2022-07-30T01:43:50.861Z,100824.96
2022-07-30T01:48:59.209Z,100831.11
2022-07-30T01:54:10.981Z,100826.35
2022-07-30T01:59:21.019Z,100817.97
2022-07-30T02:04:27.606Z,100813.14
2022-07-30T02:09:45.606Z,100797.07
2022-07-30T02:14:58.880Z,100791.95
2022-07-30T02:20:09.908Z,100798.50
2022-07-30T02:25:20.670Z,100792.39
2022-07-30T02:30:30.304Z,100789.44
2022-07-30T02:35:38.141Z,100788.85
2022-07-30T02:40:45.950Z,100786.94
2022-07-30T02:45:52.497Z,100774.48
2022-07-30T02:51:00.827Z,100770.81
2022-07-30T02:56:09.514Z,100768.36
2022-07-30T03:01:18.304Z,100766.18
2022-07-30T03:06:25.977Z,100757.59
2022-07-30T03:11:33.592Z,100750.52
2022-07-30T03:16:46.761Z,100744.55
2022-07-30T03:21:56.309Z,100738.85
2022-07-30T03:27:04.012Z,100737.20
2022-07-30T03:32:13.699Z,100736.81
2022-07-30T03:37:21.521Z,100737.56
2022-07-30T03:42:28.568Z,100728.45
2022-07-30T03:47:37.312Z,100726.60
2022-07-30T03:52:44.023Z,100722.38
2022-07-30T03:57:53.849Z,100721.54
2022-07-30T04:03:04.066Z,100728.04
2022-07-30T04:08:13.460Z,100733.70
2022-07-30T04:13:20.649Z,100738.91
2022-07-30T04:18:31.442Z,100741.83
2022-07-30T04:24:01.605Z,100740.14
2022-07-30T04:29:07.564Z,100741.59
2022-07-30T04:34:16.568Z,100745.08
2022-07-30T04:39:22.377Z,100738.17
2022-07-30T04:44:28.338Z,100740.62
2022-07-30T04:49:58.322Z,100741.69
2022-07-30T04:55:07.286Z,100739.22
2022-07-30T05:00:14.730Z,100734.98
2022-07-30T05:05:21.908Z,100732.70
2022-07-30T05:10:28.278Z,100729.92
2022-07-30T05:15:36.266Z,100727.55
2022-07-30T05:20:44.773Z,100722.34
2022-07-30T05:26:04.339Z,100718.23
2022-07-30T05:31:15.293Z,100724.51
2022-07-30T05:36:25.738Z,100716.25
2022-07-30T05:41:33.442Z,100719.95
2022-07-30T05:46:42.488Z,100719.59
2022-07-30T05:51:48.571Z,100718.08
2022-07-30T05:56:57.038Z,100721.18
2022-07-30T06:02:11.286Z,100723.92
2022-07-30T06:07:31.042Z,100728.46
2022-07-30T06:12:37.346Z,100724.35
2022-07-30T06:17:58.279Z,100715.61
2022-07-30T06:23:40.719Z,100705.30
2022-07-30T06:28:52.282Z,100718.16
2022-07-30T06:34:04.297Z,100721.31
2022-07-30T06:39:56.909Z,100711.59
2022-07-30T06:45:05.276Z,100708.41
2022-07-30T06:50:31.473Z,100697.18
2022-07-30T06:55:37.437Z,100693.23
2022-07-30T07:00:45.129Z,100695.59
2022-07-30T07:05:52.138Z,100699.85
2022-07-30T07:10:58.237Z,100694.64
2022-07-30T07:16:10.207Z,100688.80
2022-07-30T07:21:16.964Z,100684.98
2022-07-30T07:26:24.065Z,100686.98
2022-07-30T07:32:05.676Z,100683.83
2022-07-30T07:36:56.877Z,100665.13
2022-07-30T07:42:02.832Z,100654.84
2022-07-30T07:47:11.585Z,100659.17
2022-07-30T07:52:21.903Z,100662.27
2022-07-30T07:57:27.937Z,100660.27
2022-07-30T08:02:34.853Z,100657.75
2022-07-30T08:07:46.047Z,100653.42
2022-07-30T08:13:49.060Z,100650.48
2022-07-30T08:18:55.279Z,100638.85
2022-07-30T08:24:09.775Z,100640.26
2022-07-30T08:29:17.348Z,100637.80
2022-07-30T08:34:25.688Z,100633.98
2022-07-30T08:39:32.579Z,100632.57
2022-07-30T08:44:40.670Z,100632.05
2022-07-30T08:49:48.375Z,100629.73
2022-07-30T08:54:55.860Z,100623.97
2022-07-30T09:00:02.217Z,100622.67
2022-07-30T09:05:10.393Z,100617.26
2022-07-30T09:10:17.914Z,100619.24
2022-07-30T09:15:25.683Z,100623.76
2022-07-30T09:20:35.277Z,100618.34
2022-07-30T09:25:46.580Z,100611.14
2022-07-30T09:31:47.626Z,100604.91
2022-07-30T09:37:20.656Z,100602.88
2022-07-30T09:42:45.546Z,100612.63
2022-07-30T09:47:53.512Z,100615.98
2022-07-30T09:53:12.065Z,100612.45
2022-07-30T09:58:27.384Z,100610.84
2022-07-30T10:03:42.301Z,100602.73
2022-07-30T10:09:14.089Z,100603.70
2022-07-30T10:14:31.309Z,100604.67
2022-07-30T10:19:39.559Z,100598.89
2022-07-30T10:25:07.649Z,100594.92
2022-07-30T10:30:34.085Z,100611.11
2022-07-30T10:35:40.266Z,100617.00
2022-07-30T10:40:52.832Z,100619.68
2022-07-30T10:46:22.163Z,100618.36
2022-07-30T10:51:46.573Z,100609.28
2022-07-30T10:57:06.218Z,100612.77
2022-07-30T11:02:12.358Z,100609.02
2022-07-30T11:07:31.964Z,100611.09
2022-07-30T11:12:56.941Z,100616.93
2022-07-30T11:18:12.089Z,100618.67
2022-07-30T11:23:39.102Z,100622.64
2022-07-30T11:28:49.167Z,100619.48
2022-07-30T11:34:29.779Z,100609.48
2022-07-30T11:40:08.210Z,100604.83
2022-07-30T11:45:29.608Z,100604.10
2022-07-30T11:50:36.417Z,100604.67
2022-07-30T11:55:47.711Z,100601.86
2022-07-30T12:00:55.255Z,100608.10
2022-07-30T12:06:07.200Z,100603.47
2022-07-30T12:11:13.920Z,100597.29
2022-07-30T12:16:20.313Z,100592.62
2022-07-30T12:21:26.442Z,100586.07
2022-07-30T12:26:34.832Z,100572.75
2022-07-30T12:31:41.392Z,100562.59
2022-07-30T12:36:47.585Z,100556.66
2022-07-30T12:41:58.221Z,100553.34
2022-07-30T12:47:05.961Z,100546.56
2022-07-30T12:52:28.130Z,100542.92
2022-07-30T12:58:01.788Z,100535.35
2022-07-30T13:03:23.526Z,100523.64
2022-07-30T13:08:50.814Z,100524.42
2022-07-30T13:13:56.891Z,100521.48
2022-07-30T13:19:04.653Z,100523.55
2022-07-30T13:24:11.349Z,100518.16
2022-07-30T13:29:24.327Z,100517.80
2022-07-30T13:34:30.114Z,100516.31
2022-07-30T13:39:36.202Z,100514.08
2022-07-30T13:44:42.151Z,100509.62
2022-07-30T13:49:51.122Z,100512.40
2022-07-30T13:54:58.141Z,100511.42
2022-07-30T14:00:05.059Z,100506.85
2022-07-30T14:05:11.980Z,100504.59
2022-07-30T14:10:18.221Z,100489.95
2022-07-30T14:15:24.648Z,100480.69
2022-07-30T14:20:31.028Z,100468.45
2022-07-30T14:25:37.006Z,100469.48
2022-07-30T14:30:43.325Z,100455.86
2022-07-30T14:35:49.177Z,100445.70
2022-07-30T14:40:56.373Z,100442.90
2022-07-30T14:46:02.312Z,100439.78
2022-07-30T14:51:17.751Z,100430.90
2022-07-30T14:56:27.109Z,100426.43
2022-07-30T15:01:33.178Z,100428.33
2022-07-30T15:06:40.774Z,100427.55
2022-07-30T15:17:12.691Z,100412.64
2022-07-30T15:22:19.102Z,100405.64
2022-07-30T15:27:33.372Z,100404.83
2022-07-30T15:32:40.081Z,100403.90
2022-07-30T15:37:45.877Z,100403.02
2022-07-30T15:42:52.116Z,100397.63
2022-07-30T15:47:58.053Z,100388.56
2022-07-30T15:53:09.367Z,100377.81
2022-07-30T15:58:17.765Z,100374.45
2022-07-30T16:03:24.095Z,100368.04
2022-07-30T16:08:30.479Z,100364.13
2022-07-30T16:13:36.362Z,100351.50
2022-07-30T16:18:42.437Z,100345.05
2022-07-30T16:23:48.213Z,100337.80
2022-07-30T16:28:54.497Z,100333.50
2022-07-30T16:34:01.509Z,100336.24
2022-07-30T16:39:07.355Z,100337.96
2022-07-30T16:44:13.246Z,100338.71
2022-07-30T16:49:19.448Z,100341.30
2022-07-30T16:54:25.454Z,100331.50
2022-07-30T16:59:31.350Z,100319.05
2022-07-30T17:04:38.763Z,100318.23
2022-07-30T17:09:44.539Z,100319.89
2022-07-30T17:14:58.197Z,100327.10
2022-07-30T17:20:06.393Z,100330.69
2022-07-30T17:25:12.528Z,100338.16
2022-07-30T17:30:19.929Z,100339.02
2022-07-30T17:35:26.326Z,100344.15
2022-07-30T17:40:32.290Z,100339.56
2022-07-30T17:45:38.534Z,100333.96
2022-07-30T17:50:44.565Z,100334.38
2022-07-30T17:55:57.294Z,100332.71
2022-07-30T18:01:04.706Z,100328.19
2022-07-30T18:06:12.103Z,100330.60
2022-07-30T18:11:18.486Z,100321.33
2022-07-30T18:16:24.487Z,100305.13
2022-07-30T18:21:30.313Z,100305.41
2022-07-30T18:26:38.635Z,100300.83
2022-07-30T18:31:45.494Z,100294.11
2022-07-30T18:36:53.113Z,100290.55
2022-07-30T18:42:02.119Z,100279.83
2022-07-30T18:47:08.704Z,100276.98
2022-07-30T18:52:14.615Z,100270.80
2022-07-30T18:57:21.299Z,100273.92
2022-07-30T19:02:27.451Z,100275.34
2022-07-30T19:07:48.123Z,100266.60
2022-07-30T19:12:59.700Z,100259.45
2022-07-30T19:18:05.729Z,100258.05
2022-07-30T19:23:12.452Z,100268.70
2022-07-30T19:28:18.428Z,100269.09
2022-07-30T19:33:24.627Z,100257.81
2022-07-30T19:38:30.857Z,100263.70
2022-07-30T19:43:37.368Z,100259.89
2022-07-30T19:48:45.379Z,100256.21
2022-07-30T19:53:52.254Z,100254.11
2022-07-30T19:58:58.146Z,100242.15
2022-07-30T20:04:05.701Z,100233.74
2022-07-30T20:09:14.961Z,100228.98
2022-07-30T20:14:22.891Z,100218.16
2022-07-30T20:19:35.954Z,100210.36
2022-07-30T20:24:42.427Z,100206.54
2022-07-30T20:29:48.455Z,100200.04
2022-07-30T20:34:54.990Z,100193.44
2022-07-30T20:40:01.136Z,100190.52
2022-07-30T20:45:09.475Z,100184.92
2022-07-30T20:50:15.574Z,100185.71
2022-07-30T20:55:23.179Z,100190.83
2022-07-30T21:00:29.099Z,100197.19
2022-07-30T21:05:36.548Z,100206.23
2022-07-30T21:10:44.565Z,100206.12
2022-07-30T21:16:02.265Z,100218.73
2022-07-30T21:21:17.677Z,100209.77
2022-07-30T21:26:35.297Z,100210.55
2022-07-30T21:32:01.502Z,100226.92
2022-07-30T21:37:13.072Z,100236.98
2022-07-30T21:42:30.162Z,100232.27
2022-07-30T21:47:36.962Z,100231.98
2022-07-30T21:52:43.941Z,100231.81
2022-07-30T21:57:50.740Z,100225.91
2022-07-30T22:02:57.288Z,100217.61
2022-07-30T22:08:03.738Z,100214.38
2022-07-30T22:13:18.351Z,100197.45
2022-07-30T22:18:28.463Z,100189.52
2022-07-30T22:23:34.369Z,100181.80
2022-07-30T22:28:40.365Z,100166.61
2022-07-30T22:33:46.513Z,100162.02
2022-07-30T22:38:58.719Z,100150.96
2022-07-30T22:44:05.467Z,100146.95
2022-07-30T22:49:23.477Z,100143.54
2022-07-30T22:54:30.465Z,100138.42
2022-07-30T22:59:57.890Z,100131.77
2022-07-30T23:05:03.204Z,100131.01
2022-07-30T23:10:12.327Z,100131.25
2022-07-30T23:15:24.741Z,100113.98
2022-07-30T23:20:30.815Z,100106.32
2022-07-30T23:25:39.005Z,100106.02
2022-07-30T23:30:45.360Z,100102.04
2022-07-30T23:35:51.497Z,100096.27
2022-07-30T23:41:02.271Z,100089.84
2022-07-30T23:46:09.504Z,100088.86
2022-07-30T23:51:16.884Z,100078.23
2022-07-30T23:56:22.794Z,100073.37
